sensor_id;sensor_type;location;lat;lon;timestamp;temperature;humidity
21019;DHT22;10667;51.056;3.732;2023-02-01T00:00:10;8.60;99.90
21019;DHT22;10667;51.056;3.732;2023-02-01T00:02:37;8.70;99.90
21019;DHT22;10667;51.056;3.732;2023-02-01T00:05:06;8.70;99.90
21019;DHT22;10667;51.056;3.732;2023-02-01T00:07:32;8.70;99.90
21019;DHT22;10667;51.056;3.732;2023-02-01T00:09:58;8.60;99.90
21019;DHT22;10667;51.056;3.732;2023-02-01T00:12:23;8.60;99.90
21019;DHT22;10667;51.056;3.732;2023-02-01T00:14:49;8.50;99.90
21019;DHT22;10667;51.056;3.732;2023-02-01T00:17:15;8.60;99.90
21019;DHT22;10667;51.056;3.732;2023-02-01T00:19:40;8.50;99.90
21019;DHT22;10667;51.056;3.732;2023-02-01T00:22:06;8.40;99.90
21019;DHT22;10667;51.056;3.732;2023-02-01T00:24:31;8.40;99.90
21019;DHT22;10667;51.056;3.732;2023-02-01T00:26:57;8.40;99.90
21019;DHT22;10667;51.056;3.732;2023-02-01T00:29:23;8.20;99.90
21019;DHT22;10667;51.056;3.732;2023-02-01T00:31:50;8.20;99.90
21019;DHT22;10667;51.056;3.732;2023-02-01T00:34:17;8.30;99.90
21019;DHT22;10667;51.056;3.732;2023-02-01T00:36:44;8.00;99.90
21019;DHT22;10667;51.056;3.732;2023-02-01T00:39:10;7.90;99.90
21019;DHT22;10667;51.056;3.732;2023-02-01T00:41:36;7.80;99.90
21019;DHT22;10667;51.056;3.732;2023-02-01T00:44:03;7.80;99.90
21019;DHT22;10667;51.056;3.732;2023-02-01T00:46:29;7.80;99.90
21019;DHT22;10667;51.056;3.732;2023-02-01T00:48:55;7.90;99.90
21019;DHT22;10667;51.056;3.732;2023-02-01T00:51:23;7.90;99.90
21019;DHT22;10667;51.056;3.732;2023-02-01T00:53:49;7.80;99.90
21019;DHT22;10667;51.056;3.732;2023-02-01T00:56:15;7.80;99.90
21019;DHT22;10667;51.056;3.732;2023-02-01T00:58:41;7.80;99.90
21019;DHT22;10667;51.056;3.732;2023-02-01T01:01:32;7.90;99.90
21019;DHT22;10667;51.056;3.732;2023-02-01T01:03:59;7.90;99.90
21019;DHT22;10667;51.056;3.732;2023-02-01T01:06:30;7.90;99.90
21019;DHT22;10667;51.056;3.732;2023-02-01T01:08:58;7.90;99.90
21019;DHT22;10667;51.056;3.732;2023-02-01T01:11:29;7.90;99.90
21019;DHT22;10667;51.056;3.732;2023-02-01T01:13:57;8.00;99.90
21019;DHT22;10667;51.056;3.732;2023-02-01T01:16:24;7.90;99.90
21019;DHT22;10667;51.056;3.732;2023-02-01T01:18:51;7.80;99.90
21019;DHT22;10667;51.056;3.732;2023-02-01T01:21:17;7.80;99.90
21019;DHT22;10667;51.056;3.732;2023-02-01T01:23:44;7.70;99.90
21019;DHT22;10667;51.056;3.732;2023-02-01T01:26:14;7.70;99.90
21019;DHT22;10667;51.056;3.732;2023-02-01T01:28:40;7.70;99.90
21019;DHT22;10667;51.056;3.732;2023-02-01T01:31:10;7.70;99.90
21019;DHT22;10667;51.056;3.732;2023-02-01T01:33:36;7.60;99.90
21019;DHT22;10667;51.056;3.732;2023-02-01T01:36:05;7.50;99.90
21019;DHT22;10667;51.056;3.732;2023-02-01T01:38:31;7.60;99.90
21019;DHT22;10667;51.056;3.732;2023-02-01T01:40:56;7.60;99.90
21019;DHT22;10667;51.056;3.732;2023-02-01T01:43:22;7.50;99.90
21019;DHT22;10667;51.056;3.732;2023-02-01T01:45:49;7.40;99.90
21019;DHT22;10667;51.056;3.732;2023-02-01T01:48:28;7.50;99.90
21019;DHT22;10667;51.056;3.732;2023-02-01T01:51:00;7.40;99.90
21019;DHT22;10667;51.056;3.732;2023-02-01T01:53:31;7.40;99.90
21019;DHT22;10667;51.056;3.732;2023-02-01T01:55:59;7.40;99.90
21019;DHT22;10667;51.056;3.732;2023-02-01T01:58:28;7.50;99.90
21019;DHT22;10667;51.056;3.732;2023-02-01T02:00:54;7.30;99.90
21019;DHT22;10667;51.056;3.732;2023-02-01T02:03:27;7.30;99.90
21019;DHT22;10667;51.056;3.732;2023-02-01T02:05:57;7.30;99.90
21019;DHT22;10667;51.056;3.732;2023-02-01T02:08:25;7.30;99.90
21019;DHT22;10667;51.056;3.732;2023-02-01T02:10:52;7.30;99.90
21019;DHT22;10667;51.056;3.732;2023-02-01T02:18:54;7.30;99.90
21019;DHT22;10667;51.056;3.732;2023-02-01T02:21:47;7.30;99.90
21019;DHT22;10667;51.056;3.732;2023-02-01T02:30:07;7.20;99.90
21019;DHT22;10667;51.056;3.732;2023-02-01T02:33:12;7.30;99.90
21019;DHT22;10667;51.056;3.732;2023-02-01T02:41:31;7.20;99.90
21019;DHT22;10667;51.056;3.732;2023-02-01T02:47:44;7.20;99.90
21019;DHT22;10667;51.056;3.732;2023-02-01T02:53:27;7.00;99.90
21019;DHT22;10667;51.056;3.732;2023-02-01T02:56:15;7.00;99.90
21019;DHT22;10667;51.056;3.732;2023-02-01T02:59:01;6.90;99.90
21019;DHT22;10667;51.056;3.732;2023-02-01T03:01:46;6.90;99.90
21019;DHT22;10667;51.056;3.732;2023-02-01T03:04:31;7.00;99.90
21019;DHT22;10667;51.056;3.732;2023-02-01T03:06:57;6.90;99.90
21019;DHT22;10667;51.056;3.732;2023-02-01T03:09:30;6.90;99.90
21019;DHT22;10667;51.056;3.732;2023-02-01T03:12:01;7.00;99.90
21019;DHT22;10667;51.056;3.732;2023-02-01T03:14:50;7.00;99.90
21019;DHT22;10667;51.056;3.732;2023-02-01T03:17:22;6.90;99.90
21019;DHT22;10667;51.056;3.732;2023-02-01T03:19:53;6.90;99.90
21019;DHT22;10667;51.056;3.732;2023-02-01T03:22:24;7.10;99.90
21019;DHT22;10667;51.056;3.732;2023-02-01T03:24:58;7.20;99.90
21019;DHT22;10667;51.056;3.732;2023-02-01T03:27:42;7.20;99.90
21019;DHT22;10667;51.056;3.732;2023-02-01T03:32:40;7.10;99.90
21019;DHT22;10667;51.056;3.732;2023-02-01T03:35:28;7.00;99.90
21019;DHT22;10667;51.056;3.732;2023-02-01T03:38:03;7.10;99.90
21019;DHT22;10667;51.056;3.732;2023-02-01T03:40:35;7.30;99.90
21019;DHT22;10667;51.056;3.732;2023-02-01T03:43:02;7.20;99.90
21019;DHT22;10667;51.056;3.732;2023-02-01T03:45:36;7.20;99.90
21019;DHT22;10667;51.056;3.732;2023-02-01T03:48:06;7.30;99.90
21019;DHT22;10667;51.056;3.732;2023-02-01T03:50:34;7.20;99.90
21019;DHT22;10667;51.056;3.732;2023-02-01T03:53:09;7.10;99.90
21019;DHT22;10667;51.056;3.732;2023-02-01T03:55:36;7.00;99.90
21019;DHT22;10667;51.056;3.732;2023-02-01T03:58:16;7.00;99.90
21019;DHT22;10667;51.056;3.732;2023-02-01T04:00:54;6.90;99.90
21019;DHT22;10667;51.056;3.732;2023-02-01T04:03:20;6.90;99.90
21019;DHT22;10667;51.056;3.732;2023-02-01T04:05:47;7.00;99.90
21019;DHT22;10667;51.056;3.732;2023-02-01T04:08:13;7.00;99.90
21019;DHT22;10667;51.056;3.732;2023-02-01T04:10:39;7.10;99.90
21019;DHT22;10667;51.056;3.732;2023-02-01T04:13:05;6.90;99.90
21019;DHT22;10667;51.056;3.732;2023-02-01T04:15:31;6.70;99.90
21019;DHT22;10667;51.056;3.732;2023-02-01T04:17:56;6.60;99.90
21019;DHT22;10667;51.056;3.732;2023-02-01T04:20:22;6.70;99.90
21019;DHT22;10667;51.056;3.732;2023-02-01T04:22:48;6.70;99.90
21019;DHT22;10667;51.056;3.732;2023-02-01T04:25:14;6.60;99.90
21019;DHT22;10667;51.056;3.732;2023-02-01T04:27:39;6.70;99.90
21019;DHT22;10667;51.056;3.732;2023-02-01T04:30:05;6.70;99.90
21019;DHT22;10667;51.056;3.732;2023-02-01T04:32:38;6.70;99.90
21019;DHT22;10667;51.056;3.732;2023-02-01T04:35:04;6.70;99.90
21019;DHT22;10667;51.056;3.732;2023-02-01T04:37:30;6.70;99.90
21019;DHT22;10667;51.056;3.732;2023-02-01T04:39:56;6.70;99.90
21019;DHT22;10667;51.056;3.732;2023-02-01T04:42:22;6.60;99.90
21019;DHT22;10667;51.056;3.732;2023-02-01T04:44:47;6.50;99.90
21019;DHT22;10667;51.056;3.732;2023-02-01T04:47:13;6.60;99.90
21019;DHT22;10667;51.056;3.732;2023-02-01T04:49:41;6.50;99.90
21019;DHT22;10667;51.056;3.732;2023-02-01T04:52:07;6.50;99.90
21019;DHT22;10667;51.056;3.732;2023-02-01T04:54:33;6.50;99.90
21019;DHT22;10667;51.056;3.732;2023-02-01T04:56:58;6.50;99.90
21019;DHT22;10667;51.056;3.732;2023-02-01T04:59:24;6.50;99.90
21019;DHT22;10667;51.056;3.732;2023-02-01T05:01:50;6.50;99.90
21019;DHT22;10667;51.056;3.732;2023-02-01T05:04:16;6.50;99.90
21019;DHT22;10667;51.056;3.732;2023-02-01T05:06:44;6.40;99.90
21019;DHT22;10667;51.056;3.732;2023-02-01T05:09:10;6.30;99.90
21019;DHT22;10667;51.056;3.732;2023-02-01T05:11:35;6.40;99.90
21019;DHT22;10667;51.056;3.732;2023-02-01T05:14:20;6.40;99.90
21019;DHT22;10667;51.056;3.732;2023-02-01T05:16:46;6.40;99.90
21019;DHT22;10667;51.056;3.732;2023-02-01T05:19:11;6.40;99.90
21019;DHT22;10667;51.056;3.732;2023-02-01T05:21:37;6.50;99.90
21019;DHT22;10667;51.056;3.732;2023-02-01T05:24:04;6.50;99.90
21019;DHT22;10667;51.056;3.732;2023-02-01T05:26:36;6.50;99.90
21019;DHT22;10667;51.056;3.732;2023-02-01T05:29:03;6.50;99.90
21019;DHT22;10667;51.056;3.732;2023-02-01T05:31:29;6.40;99.90
21019;DHT22;10667;51.056;3.732;2023-02-01T05:33:55;6.50;99.90
21019;DHT22;10667;51.056;3.732;2023-02-01T05:36:21;6.40;99.90
21019;DHT22;10667;51.056;3.732;2023-02-01T05:38:46;6.50;99.90
21019;DHT22;10667;51.056;3.732;2023-02-01T05:41:12;6.50;99.90
21019;DHT22;10667;51.056;3.732;2023-02-01T05:43:38;6.40;99.90
21019;DHT22;10667;51.056;3.732;2023-02-01T05:46:03;6.40;99.90
21019;DHT22;10667;51.056;3.732;2023-02-01T05:48:29;6.30;99.90
21019;DHT22;10667;51.056;3.732;2023-02-01T05:50:55;6.30;99.90
21019;DHT22;10667;51.056;3.732;2023-02-01T05:53:21;6.30;99.90
21019;DHT22;10667;51.056;3.732;2023-02-01T05:55:46;6.30;99.90
21019;DHT22;10667;51.056;3.732;2023-02-01T05:58:12;6.20;99.90
21019;DHT22;10667;51.056;3.732;2023-02-01T06:00:39;6.30;99.90
21019;DHT22;10667;51.056;3.732;2023-02-01T06:03:05;6.30;99.90
21019;DHT22;10667;51.056;3.732;2023-02-01T06:05:31;6.30;99.90
21019;DHT22;10667;51.056;3.732;2023-02-01T06:07:56;6.30;99.90
21019;DHT22;10667;51.056;3.732;2023-02-01T06:10:22;6.30;99.90
21019;DHT22;10667;51.056;3.732;2023-02-01T06:12:48;6.30;99.90
21019;DHT22;10667;51.056;3.732;2023-02-01T06:15:14;6.30;99.90
21019;DHT22;10667;51.056;3.732;2023-02-01T06:17:44;6.30;99.90
21019;DHT22;10667;51.056;3.732;2023-02-01T06:20:12;6.30;99.90
21019;DHT22;10667;51.056;3.732;2023-02-01T06:22:38;6.30;99.90
21019;DHT22;10667;51.056;3.732;2023-02-01T06:25:06;6.40;99.90
21019;DHT22;10667;51.056;3.732;2023-02-01T06:27:33;6.40;99.90
21019;DHT22;10667;51.056;3.732;2023-02-01T06:29:58;6.30;99.90
21019;DHT22;10667;51.056;3.732;2023-02-01T06:32:24;6.30;99.90
21019;DHT22;10667;51.056;3.732;2023-02-01T06:34:50;6.30;99.90
21019;DHT22;10667;51.056;3.732;2023-02-01T06:37:19;6.30;99.90
21019;DHT22;10667;51.056;3.732;2023-02-01T06:39:44;6.20;99.90
21019;DHT22;10667;51.056;3.732;2023-02-01T06:42:10;6.30;99.90
21019;DHT22;10667;51.056;3.732;2023-02-01T06:44:36;6.20;99.90
21019;DHT22;10667;51.056;3.732;2023-02-01T06:47:03;6.30;99.90
21019;DHT22;10667;51.056;3.732;2023-02-01T06:49:29;6.40;99.90
21019;DHT22;10667;51.056;3.732;2023-02-01T06:51:54;6.30;99.90
21019;DHT22;10667;51.056;3.732;2023-02-01T06:54:20;6.20;99.90
21019;DHT22;10667;51.056;3.732;2023-02-01T06:56:46;6.10;99.90
21019;DHT22;10667;51.056;3.732;2023-02-01T06:59:12;6.20;99.90
21019;DHT22;10667;51.056;3.732;2023-02-01T07:01:37;6.20;99.90
21019;DHT22;10667;51.056;3.732;2023-02-01T07:04:03;6.20;99.90
21019;DHT22;10667;51.056;3.732;2023-02-01T07:06:29;6.20;99.90
21019;DHT22;10667;51.056;3.732;2023-02-01T07:08:55;6.30;99.90
21019;DHT22;10667;51.056;3.732;2023-02-01T07:11:22;6.20;99.90
21019;DHT22;10667;51.056;3.732;2023-02-01T07:13:47;6.30;99.90
21019;DHT22;10667;51.056;3.732;2023-02-01T07:16:16;6.40;99.90
21019;DHT22;10667;51.056;3.732;2023-02-01T07:18:42;6.40;99.90
21019;DHT22;10667;51.056;3.732;2023-02-01T07:21:09;6.50;99.90
21019;DHT22;10667;51.056;3.732;2023-02-01T07:23:34;6.50;99.90
21019;DHT22;10667;51.056;3.732;2023-02-01T07:26:03;6.50;99.90
21019;DHT22;10667;51.056;3.732;2023-02-01T07:28:34;6.40;99.90
21019;DHT22;10667;51.056;3.732;2023-02-01T07:31:08;6.40;99.90
21019;DHT22;10667;51.056;3.732;2023-02-01T07:33:35;6.40;99.90
21019;DHT22;10667;51.056;3.732;2023-02-01T07:36:02;6.30;99.90
21019;DHT22;10667;51.056;3.732;2023-02-01T07:38:29;6.40;99.90
21019;DHT22;10667;51.056;3.732;2023-02-01T07:41:02;6.50;99.90
21019;DHT22;10667;51.056;3.732;2023-02-01T07:43:28;6.50;99.90
21019;DHT22;10667;51.056;3.732;2023-02-01T07:45:55;6.50;99.90
21019;DHT22;10667;51.056;3.732;2023-02-01T07:48:22;6.50;99.90
21019;DHT22;10667;51.056;3.732;2023-02-01T07:50:48;6.40;99.90
21019;DHT22;10667;51.056;3.732;2023-02-01T07:53:14;6.60;99.90
21019;DHT22;10667;51.056;3.732;2023-02-01T07:55:40;6.80;99.90
21019;DHT22;10667;51.056;3.732;2023-02-01T07:58:06;6.80;99.90
21019;DHT22;10667;51.056;3.732;2023-02-01T08:00:32;6.80;99.90
21019;DHT22;10667;51.056;3.732;2023-02-01T08:03:17;6.80;99.90
21019;DHT22;10667;51.056;3.732;2023-02-01T08:05:43;6.90;99.90
21019;DHT22;10667;51.056;3.732;2023-02-01T08:08:09;6.90;99.90
21019;DHT22;10667;51.056;3.732;2023-02-01T08:10:35;7.10;99.90
21019;DHT22;10667;51.056;3.732;2023-02-01T08:13:02;7.10;99.90
21019;DHT22;10667;51.056;3.732;2023-02-01T08:15:29;7.20;99.90
21019;DHT22;10667;51.056;3.732;2023-02-01T08:17:55;7.30;99.90
21019;DHT22;10667;51.056;3.732;2023-02-01T08:20:21;7.30;99.90
21019;DHT22;10667;51.056;3.732;2023-02-01T08:22:49;7.20;99.90
21019;DHT22;10667;51.056;3.732;2023-02-01T08:25:15;7.30;99.90
21019;DHT22;10667;51.056;3.732;2023-02-01T08:27:40;7.30;99.90
21019;DHT22;10667;51.056;3.732;2023-02-01T08:30:08;7.40;99.90
21019;DHT22;10667;51.056;3.732;2023-02-01T08:32:34;7.50;99.90
21019;DHT22;10667;51.056;3.732;2023-02-01T08:35:01;7.50;99.90
21019;DHT22;10667;51.056;3.732;2023-02-01T08:37:27;7.40;99.90
21019;DHT22;10667;51.056;3.732;2023-02-01T08:39:52;7.50;99.90
21019;DHT22;10667;51.056;3.732;2023-02-01T08:42:18;7.40;99.90
21019;DHT22;10667;51.056;3.732;2023-02-01T08:45:03;7.40;99.90
21019;DHT22;10667;51.056;3.732;2023-02-01T08:47:30;7.30;99.90
21019;DHT22;10667;51.056;3.732;2023-02-01T08:49:56;7.40;99.90
21019;DHT22;10667;51.056;3.732;2023-02-01T08:52:22;7.50;99.90
21019;DHT22;10667;51.056;3.732;2023-02-01T08:54:47;7.50;99.90
21019;DHT22;10667;51.056;3.732;2023-02-01T08:57:13;7.60;99.90
21019;DHT22;10667;51.056;3.732;2023-02-01T08:59:39;7.60;99.90
21019;DHT22;10667;51.056;3.732;2023-02-01T09:02:04;7.70;99.90
21019;DHT22;10667;51.056;3.732;2023-02-01T09:04:30;7.80;99.90
21019;DHT22;10667;51.056;3.732;2023-02-01T09:06:56;7.90;99.90
21019;DHT22;10667;51.056;3.732;2023-02-01T09:09:28;8.00;99.90
21019;DHT22;10667;51.056;3.732;2023-02-01T09:11:53;8.10;99.90
21019;DHT22;10667;51.056;3.732;2023-02-01T09:14:19;8.20;99.90
21019;DHT22;10667;51.056;3.732;2023-02-01T09:16:45;8.30;99.90
21019;DHT22;10667;51.056;3.732;2023-02-01T09:19:10;8.30;99.90
21019;DHT22;10667;51.056;3.732;2023-02-01T09:21:36;8.20;99.90
21019;DHT22;10667;51.056;3.732;2023-02-01T09:24:02;8.20;99.90
21019;DHT22;10667;51.056;3.732;2023-02-01T09:26:29;8.30;99.90
21019;DHT22;10667;51.056;3.732;2023-02-01T09:28:55;8.30;99.90
21019;DHT22;10667;51.056;3.732;2023-02-01T09:31:20;8.30;99.90
21019;DHT22;10667;51.056;3.732;2023-02-01T09:33:46;8.30;99.90
21019;DHT22;10667;51.056;3.732;2023-02-01T09:36:12;8.40;99.90
21019;DHT22;10667;51.056;3.732;2023-02-01T09:38:37;8.40;99.90
21019;DHT22;10667;51.056;3.732;2023-02-01T09:41:16;8.50;99.90
21019;DHT22;10667;51.056;3.732;2023-02-01T09:43:53;8.60;99.90
21019;DHT22;10667;51.056;3.732;2023-02-01T09:46:27;8.60;99.90
21019;DHT22;10667;51.056;3.732;2023-02-01T09:48:55;8.50;99.90
21019;DHT22;10667;51.056;3.732;2023-02-01T09:51:34;8.70;99.90
21019;DHT22;10667;51.056;3.732;2023-02-01T09:54:16;8.70;99.90
21019;DHT22;10667;51.056;3.732;2023-02-01T09:59:26;8.90;99.90
21019;DHT22;10667;51.056;3.732;2023-02-01T10:01:54;8.90;99.90
21019;DHT22;10667;51.056;3.732;2023-02-01T10:04:20;8.80;99.90
21019;DHT22;10667;51.056;3.732;2023-02-01T10:09:52;8.80;99.90
21019;DHT22;10667;51.056;3.732;2023-02-01T10:12:36;8.80;99.90
21019;DHT22;10667;51.056;3.732;2023-02-01T10:26:21;8.80;99.90
21019;DHT22;10667;51.056;3.732;2023-02-01T10:28:50;8.90;99.90
21019;DHT22;10667;51.056;3.732;2023-02-01T10:31:17;9.10;99.90
21019;DHT22;10667;51.056;3.732;2023-02-01T10:33:47;9.10;99.90
21019;DHT22;10667;51.056;3.732;2023-02-01T10:36:19;9.10;99.90
21019;DHT22;10667;51.056;3.732;2023-02-01T10:38:47;8.80;99.90
21019;DHT22;10667;51.056;3.732;2023-02-01T10:41:20;8.70;99.90
21019;DHT22;10667;51.056;3.732;2023-02-01T10:43:50;8.70;99.90
21019;DHT22;10667;51.056;3.732;2023-02-01T10:46:17;8.60;99.90
21019;DHT22;10667;51.056;3.732;2023-02-01T10:48:43;8.70;99.90
21019;DHT22;10667;51.056;3.732;2023-02-01T10:54:35;8.90;99.90
21019;DHT22;10667;51.056;3.732;2023-02-01T10:57:07;9.10;99.90
21019;DHT22;10667;51.056;3.732;2023-02-01T10:59:34;9.30;99.90
21019;DHT22;10667;51.056;3.732;2023-02-01T11:02:14;9.40;99.90
21019;DHT22;10667;51.056;3.732;2023-02-01T11:04:41;9.50;99.90
21019;DHT22;10667;51.056;3.732;2023-02-01T11:07:12;9.60;99.90
21019;DHT22;10667;51.056;3.732;2023-02-01T11:09:41;9.80;99.90
21019;DHT22;10667;51.056;3.732;2023-02-01T11:12:35;9.90;99.90
21019;DHT22;10667;51.056;3.732;2023-02-01T11:15:20;10.00;99.90
21019;DHT22;10667;51.056;3.732;2023-02-01T11:17:48;9.80;99.90
21019;DHT22;10667;51.056;3.732;2023-02-01T11:20:39;9.90;99.90
21019;DHT22;10667;51.056;3.732;2023-02-01T11:23:15;10.00;99.90
21019;DHT22;10667;51.056;3.732;2023-02-01T11:28:26;10.10;99.90
21019;DHT22;10667;51.056;3.732;2023-02-01T11:30:55;10.20;99.90
21019;DHT22;10667;51.056;3.732;2023-02-01T11:33:26;10.30;99.90
21019;DHT22;10667;51.056;3.732;2023-02-01T11:35:56;10.30;99.90
21019;DHT22;10667;51.056;3.732;2023-02-01T11:38:30;10.30;99.90
21019;DHT22;10667;51.056;3.732;2023-02-01T11:41:21;10.40;99.90
21019;DHT22;10667;51.056;3.732;2023-02-01T11:43:56;10.50;99.90
21019;DHT22;10667;51.056;3.732;2023-02-01T11:46:28;10.60;99.90
21019;DHT22;10667;51.056;3.732;2023-02-01T11:48:54;10.50;99.90
21019;DHT22;10667;51.056;3.732;2023-02-01T11:51:34;10.30;99.90
21019;DHT22;10667;51.056;3.732;2023-02-01T11:54:08;10.50;99.90
21019;DHT22;10667;51.056;3.732;2023-02-01T12:07:21;10.40;99.90
21019;DHT22;10667;51.056;3.732;2023-02-01T12:15:08;10.50;99.90
21019;DHT22;10667;51.056;3.732;2023-02-01T12:23:25;10.60;99.90
21019;DHT22;10667;51.056;3.732;2023-02-01T12:31:57;10.70;99.90
21019;DHT22;10667;51.056;3.732;2023-02-01T12:34:46;10.70;99.90
21019;DHT22;10667;51.056;3.732;2023-02-01T12:37:30;10.60;99.90
21019;DHT22;10667;51.056;3.732;2023-02-01T12:43:04;10.60;99.90
21019;DHT22;10667;51.056;3.732;2023-02-01T12:45:49;10.70;99.90
21019;DHT22;10667;51.056;3.732;2023-02-01T12:48:35;10.70;99.90
21019;DHT22;10667;51.056;3.732;2023-02-01T12:51:09;10.70;99.90
21019;DHT22;10667;51.056;3.732;2023-02-01T12:56:46;10.70;99.90
21019;DHT22;10667;51.056;3.732;2023-02-01T12:59:42;10.80;99.90
21019;DHT22;10667;51.056;3.732;2023-02-01T13:02:25;10.90;99.90
21019;DHT22;10667;51.056;3.732;2023-02-01T13:05:01;11.00;99.90
21019;DHT22;10667;51.056;3.732;2023-02-01T13:08:21;11.00;99.90
21019;DHT22;10667;51.056;3.732;2023-02-01T13:15:54;11.40;99.90
21019;DHT22;10667;51.056;3.732;2023-02-01T13:18:24;11.30;99.90
21019;DHT22;10667;51.056;3.732;2023-02-01T13:21:10;11.20;99.90
21019;DHT22;10667;51.056;3.732;2023-02-01T13:23:40;11.20;99.90
21019;DHT22;10667;51.056;3.732;2023-02-01T13:26:07;11.20;99.90
21019;DHT22;10667;51.056;3.732;2023-02-01T13:28:55;11.30;99.90
21019;DHT22;10667;51.056;3.732;2023-02-01T13:39:57;11.50;99.90
21019;DHT22;10667;51.056;3.732;2023-02-01T13:42:51;11.50;99.90
21019;DHT22;10667;51.056;3.732;2023-02-01T13:45:25;11.60;99.90
21019;DHT22;10667;51.056;3.732;2023-02-01T13:47:56;11.70;99.90
21019;DHT22;10667;51.056;3.732;2023-02-01T13:50:24;11.60;99.90
21019;DHT22;10667;51.056;3.732;2023-02-01T13:53:13;11.50;99.90
21019;DHT22;10667;51.056;3.732;2023-02-01T13:55:45;11.60;99.90
21019;DHT22;10667;51.056;3.732;2023-02-01T13:58:21;11.40;99.90
21019;DHT22;10667;51.056;3.732;2023-02-01T14:00:48;11.30;99.90
21019;DHT22;10667;51.056;3.732;2023-02-01T14:03:21;11.40;99.90
21019;DHT22;10667;51.056;3.732;2023-02-01T14:08:39;11.30;99.90
21019;DHT22;10667;51.056;3.732;2023-02-01T14:11:05;11.20;99.90
21019;DHT22;10667;51.056;3.732;2023-02-01T14:13:40;11.10;99.90
21019;DHT22;10667;51.056;3.732;2023-02-01T14:18:57;11.10;99.90
21019;DHT22;10667;51.056;3.732;2023-02-01T14:21:32;11.20;99.90
21019;DHT22;10667;51.056;3.732;2023-02-01T14:26:53;11.20;99.90
21019;DHT22;10667;51.056;3.732;2023-02-01T14:29:42;11.30;99.90
21019;DHT22;10667;51.056;3.732;2023-02-01T15:01:25;10.80;99.90
21019;DHT22;10667;51.056;3.732;2023-02-01T15:06:49;10.70;99.90
21019;DHT22;10667;51.056;3.732;2023-02-01T15:09:38;10.80;99.90
21019;DHT22;10667;51.056;3.732;2023-02-01T15:12:16;10.90;99.90
21019;DHT22;10667;51.056;3.732;2023-02-01T15:14:45;10.80;99.90
21019;DHT22;10667;51.056;3.732;2023-02-01T15:19:58;10.70;99.90
21019;DHT22;10667;51.056;3.732;2023-02-01T15:22:26;10.60;99.90
21019;DHT22;10667;51.056;3.732;2023-02-01T15:25:01;10.60;99.90
21019;DHT22;10667;51.056;3.732;2023-02-01T15:27:27;10.60;99.90
21019;DHT22;10667;51.056;3.732;2023-02-01T15:29:53;10.60;99.90
21019;DHT22;10667;51.056;3.732;2023-02-01T15:32:34;10.60;99.90
21019;DHT22;10667;51.056;3.732;2023-02-01T15:35:00;10.70;99.90
21019;DHT22;10667;51.056;3.732;2023-02-01T15:37:27;10.60;99.90
21019;DHT22;10667;51.056;3.732;2023-02-01T15:42:40;10.50;99.90
21019;DHT22;10667;51.056;3.732;2023-02-01T15:45:26;10.40;99.90
21019;DHT22;10667;51.056;3.732;2023-02-01T15:47:54;10.30;99.90
21019;DHT22;10667;51.056;3.732;2023-02-01T15:50:21;10.30;99.90
21019;DHT22;10667;51.056;3.732;2023-02-01T15:52:50;10.30;99.90
21019;DHT22;10667;51.056;3.732;2023-02-01T15:55:20;10.20;99.90
21019;DHT22;10667;51.056;3.732;2023-02-01T15:57:47;10.30;99.90
21019;DHT22;10667;51.056;3.732;2023-02-01T16:00:28;10.50;99.90
21019;DHT22;10667;51.056;3.732;2023-02-01T16:03:03;10.40;99.90
21019;DHT22;10667;51.056;3.732;2023-02-01T16:05:42;10.40;99.90
21019;DHT22;10667;51.056;3.732;2023-02-01T16:08:22;10.50;99.90
21019;DHT22;10667;51.056;3.732;2023-02-01T16:10:50;10.50;99.90
21019;DHT22;10667;51.056;3.732;2023-02-01T16:13:18;10.50;99.90
21019;DHT22;10667;51.056;3.732;2023-02-01T16:15:44;10.60;99.90
21019;DHT22;10667;51.056;3.732;2023-02-01T16:18:11;10.50;99.90
21019;DHT22;10667;51.056;3.732;2023-02-01T16:20:38;10.40;99.90
21019;DHT22;10667;51.056;3.732;2023-02-01T16:23:05;10.40;99.90
21019;DHT22;10667;51.056;3.732;2023-02-01T16:25:31;10.30;99.90
21019;DHT22;10667;51.056;3.732;2023-02-01T16:27:57;10.30;99.90
21019;DHT22;10667;51.056;3.732;2023-02-01T16:30:23;10.30;99.90
21019;DHT22;10667;51.056;3.732;2023-02-01T16:32:57;10.30;99.90
21019;DHT22;10667;51.056;3.732;2023-02-01T16:38:01;10.10;99.90
21019;DHT22;10667;51.056;3.732;2023-02-01T16:40:27;10.20;99.90
21019;DHT22;10667;51.056;3.732;2023-02-01T16:42:53;10.20;99.90
21019;DHT22;10667;51.056;3.732;2023-02-01T16:45:22;10.20;99.90
21019;DHT22;10667;51.056;3.732;2023-02-01T16:47:50;10.20;99.90
21019;DHT22;10667;51.056;3.732;2023-02-01T16:50:26;10.10;99.90
21019;DHT22;10667;51.056;3.732;2023-02-01T16:52:53;10.00;99.90
21019;DHT22;10667;51.056;3.732;2023-02-01T16:55:20;10.10;99.90
21019;DHT22;10667;51.056;3.732;2023-02-01T16:57:47;10.10;99.90
21019;DHT22;10667;51.056;3.732;2023-02-01T17:00:13;10.10;99.90
21019;DHT22;10667;51.056;3.732;2023-02-01T17:02:40;10.10;99.90
21019;DHT22;10667;51.056;3.732;2023-02-01T17:05:07;10.10;99.90
21019;DHT22;10667;51.056;3.732;2023-02-01T17:07:33;10.00;99.90
21019;DHT22;10667;51.056;3.732;2023-02-01T17:09:59;10.00;99.90
21019;DHT22;10667;51.056;3.732;2023-02-01T17:12:27;10.00;99.90
21019;DHT22;10667;51.056;3.732;2023-02-01T17:14:55;10.00;99.90
21019;DHT22;10667;51.056;3.732;2023-02-01T17:17:21;9.90;99.90
21019;DHT22;10667;51.056;3.732;2023-02-01T17:19:50;9.90;99.90
21019;DHT22;10667;51.056;3.732;2023-02-01T17:22:18;10.00;99.90
21019;DHT22;10667;51.056;3.732;2023-02-01T17:24:44;10.00;99.90
21019;DHT22;10667;51.056;3.732;2023-02-01T17:27:10;9.80;99.90
21019;DHT22;10667;51.056;3.732;2023-02-01T17:29:35;10.00;99.90
21019;DHT22;10667;51.056;3.732;2023-02-01T17:32:02;10.00;99.90
21019;DHT22;10667;51.056;3.732;2023-02-01T17:34:28;10.00;99.90
21019;DHT22;10667;51.056;3.732;2023-02-01T17:36:54;9.90;99.90
21019;DHT22;10667;51.056;3.732;2023-02-01T17:39:20;10.00;99.90
21019;DHT22;10667;51.056;3.732;2023-02-01T17:42:05;10.10;99.90
21019;DHT22;10667;51.056;3.732;2023-02-01T17:44:31;10.00;99.90
21019;DHT22;10667;51.056;3.732;2023-02-01T17:46:57;10.10;99.90
21019;DHT22;10667;51.056;3.732;2023-02-01T17:49:24;10.10;99.90
21019;DHT22;10667;51.056;3.732;2023-02-01T17:51:50;10.00;99.90
21019;DHT22;10667;51.056;3.732;2023-02-01T17:54:16;10.00;99.90
21019;DHT22;10667;51.056;3.732;2023-02-01T17:56:44;10.10;99.90
21019;DHT22;10667;51.056;3.732;2023-02-01T17:59:10;9.90;99.90
21019;DHT22;10667;51.056;3.732;2023-02-01T18:01:36;9.90;99.90
21019;DHT22;10667;51.056;3.732;2023-02-01T18:04:02;9.90;99.90
21019;DHT22;10667;51.056;3.732;2023-02-01T18:06:33;10.10;99.90
21019;DHT22;10667;51.056;3.732;2023-02-01T18:08:59;10.20;99.90
21019;DHT22;10667;51.056;3.732;2023-02-01T18:11:25;10.00;99.90
21019;DHT22;10667;51.056;3.732;2023-02-01T18:13:52;9.90;99.90
21019;DHT22;10667;51.056;3.732;2023-02-01T18:16:26;10.00;99.90
21019;DHT22;10667;51.056;3.732;2023-02-01T18:18:53;10.00;99.90
21019;DHT22;10667;51.056;3.732;2023-02-01T18:21:21;9.90;99.90
21019;DHT22;10667;51.056;3.732;2023-02-01T18:23:48;9.90;99.90